createdAt,value
2017-08-09T00:00:02.942Z,0
2017-08-09T00:05:02.475Z,0
2017-08-09T00:10:02.837Z,0
2017-08-09T00:15:03.177Z,0
2017-08-09T00:20:02.490Z,0
2017-08-09T00:25:02.988Z,0
2017-08-09T00:30:02.392Z,0
2017-08-09T00:35:02.904Z,0
2017-08-09T00:40:02.424Z,0
2017-08-09T00:45:02.751Z,0
2017-08-09T00:50:03.035Z,0
2017-08-09T00:55:02.546Z,0
2017-08-09T01:00:02.986Z,0
2017-08-09T01:05:02.443Z,0
2017-08-09T01:10:02.963Z,0
2017-08-09T01:15:02.475Z,0
2017-08-09T01:20:02.806Z,0
2017-08-09T01:25:03.301Z,0
2017-08-09T01:30:02.654Z,0
2017-08-09T01:35:03.097Z,0
2017-08-09T01:40:02.598Z,0
2017-08-09T01:45:03.390Z,0
2017-08-09T01:50:02.666Z,0
2017-08-09T01:55:03.131Z,0
2017-08-09T02:00:02.436Z,0
2017-08-09T02:05:02.883Z,0
2017-08-09T02:10:02.409Z,0
2017-08-09T02:15:02.886Z,0
2017-08-09T02:20:02.366Z,0
2017-08-09T02:25:02.837Z,0
2017-08-09T02:30:03.158Z,0
2017-08-09T02:35:02.598Z,0
2017-08-09T02:40:02.950Z,0
2017-08-09T02:45:03.327Z,0
2017-08-09T02:50:02.813Z,0
2017-08-09T02:55:03.154Z,0
2017-08-09T03:00:02.532Z,0
2017-08-09T03:05:02.974Z,0
2017-08-09T03:10:02.466Z,0
2017-08-09T03:15:02.925Z,0
2017-08-09T03:20:02.421Z,0
2017-08-09T03:25:02.915Z,0
2017-08-09T03:30:02.400Z,0
2017-08-09T03:35:02.746Z,0
2017-08-09T03:40:03.261Z,1
2017-08-09T03:45:02.701Z,2
2017-08-09T03:50:03.041Z,5
2017-08-09T03:55:02.548Z,10
2017-08-09T04:00:03.050Z,10
2017-08-09T04:05:02.355Z,51
2017-08-09T04:10:02.696Z,72
2017-08-09T04:15:03.051Z,88
2017-08-09T04:20:02.520Z,171
2017-08-09T04:25:02.855Z,269
2017-08-09T04:30:02.860Z,325
2017-08-09T04:35:03.336Z,464
2017-08-09T04:40:02.827Z,522
2017-08-09T04:45:03.150Z,415
2017-08-09T04:50:02.503Z,544
2017-08-09T04:55:02.894Z,500
2017-08-09T05:00:03.236Z,536
2017-08-09T05:05:02.746Z,663
2017-08-09T05:10:03.251Z,578
2017-08-09T05:15:02.736Z,640
2017-08-09T05:20:03.147Z,760
2017-08-09T05:25:02.473Z,629
2017-08-09T05:30:02.808Z,580
2017-08-09T05:35:03.178Z,850
2017-08-09T05:40:02.637Z,982
2017-08-09T05:45:02.979Z,1000
2017-08-09T05:50:03.323Z,857
2017-08-09T05:55:02.607Z,1000
2017-08-09T06:00:03.081Z,2000
2017-08-09T06:05:02.440Z,2000
2017-08-09T06:10:02.903Z,2000
2017-08-09T06:15:02.416Z,2000
2017-08-09T06:20:02.829Z,2000
2017-08-09T06:25:03.307Z,2000
2017-08-09T06:30:02.608Z,3000
2017-08-09T06:35:03.126Z,3000
2017-08-09T06:40:02.484Z,3000
2017-08-09T06:45:02.942Z,3000
2017-08-09T06:50:02.376Z,4000
2017-08-09T06:55:02.773Z,6000
2017-08-09T07:00:03.285Z,3000
2017-08-09T07:05:02.800Z,3000
2017-08-09T07:10:03.202Z,5000
2017-08-09T07:15:02.692Z,5000
2017-08-09T07:20:03.061Z,3000
2017-08-09T07:25:02.373Z,7000
2017-08-09T07:30:02.749Z,7000
2017-08-09T07:35:03.282Z,5000
2017-08-09T07:40:02.662Z,7000
2017-08-09T07:45:03.015Z,4000
2017-08-09T07:50:02.550Z,7000
2017-08-09T07:55:03.050Z,11000
2017-08-09T08:00:02.372Z,8000
2017-08-09T08:05:02.680Z,7000
2017-08-09T08:10:03.179Z,2000
2017-08-09T08:15:02.644Z,2000
2017-08-09T08:20:03.082Z,3000
2017-08-09T08:25:02.627Z,3000
2017-08-09T08:30:03.058Z,4000
2017-08-09T08:35:02.438Z,6000
2017-08-09T08:40:02.786Z,5000
2017-08-09T08:45:03.154Z,10000
2017-08-09T08:50:02.678Z,10000
2017-08-09T08:55:02.969Z,10000
2017-08-09T09:00:02.420Z,35000
2017-08-09T09:05:02.916Z,23000
2017-08-09T09:10:03.232Z,20000
2017-08-09T09:15:02.654Z,8000
2017-08-09T09:20:03.140Z,6000
2017-08-09T09:25:02.564Z,4000
2017-08-09T09:30:03.049Z,22000
2017-08-09T09:35:02.525Z,24000
2017-08-09T09:40:03.024Z,20000
2017-08-09T09:45:02.539Z,33000
2017-08-09T09:55:03.045Z,19000
2017-08-09T10:00:02.487Z,23000
2017-08-09T10:05:02.975Z,44000
2017-08-09T10:10:02.530Z,32000
2017-08-09T10:15:02.891Z,24000
2017-08-09T10:20:02.391Z,29000
2017-08-09T10:25:02.710Z,34000
2017-08-09T10:30:03.021Z,13000
2017-08-09T10:35:02.494Z,46000
2017-08-09T10:40:02.960Z,25000
2017-08-09T10:45:02.483Z,56000
2017-08-09T10:50:02.959Z,57000
2017-08-09T10:55:03.237Z,57000
2017-08-09T11:00:02.521Z,57000
2017-08-09T11:05:02.750Z,18000
2017-08-09T11:10:03.233Z,29000
2017-08-09T11:15:02.622Z,17000
2017-08-09T11:20:02.937Z,14000
2017-08-09T11:25:02.367Z,46000
2017-08-09T11:30:02.812Z,53000
2017-08-09T11:35:03.176Z,8000
2017-08-09T11:40:02.751Z,54000
2017-08-09T11:45:03.068Z,54000
2017-08-09T11:50:02.519Z,50000
2017-08-09T11:55:02.789Z,50000
2017-08-09T12:00:03.072Z,25000
2017-08-09T12:05:02.537Z,43000
2017-08-09T12:10:03.061Z,52000
2017-08-09T12:15:03.086Z,52000
2017-08-09T12:20:02.400Z,25000
2017-08-09T12:25:02.913Z,12000
2017-08-09T12:30:03.226Z,18000
2017-08-09T12:35:02.561Z,51000
2017-08-09T12:40:02.983Z,12000
2017-08-09T12:45:02.363Z,32000
2017-08-09T12:50:02.783Z,23000
2017-08-09T12:55:03.058Z,6000
2017-08-09T13:00:02.484Z,8000
2017-08-09T13:05:03.201Z,6000
2017-08-09T13:10:02.669Z,10000
2017-08-09T13:15:03.062Z,8000
2017-08-09T13:20:02.476Z,46000
2017-08-09T13:25:02.813Z,19000
2017-08-09T13:30:03.211Z,22000
2017-08-09T13:35:02.944Z,47000
2017-08-09T13:40:02.355Z,23000
2017-08-09T13:45:02.732Z,8000
2017-08-09T13:50:03.143Z,33000
2017-08-09T13:55:02.443Z,42000
2017-08-09T14:00:02.767Z,37000
2017-08-09T14:05:03.326Z,12000
2017-08-09T14:10:02.689Z,11000
2017-08-09T14:15:03.139Z,6000
2017-08-09T14:20:02.476Z,34000
2017-08-09T14:25:02.971Z,8000
2017-08-09T14:30:02.407Z,20000
2017-08-09T14:35:02.921Z,24000
2017-08-09T14:40:02.382Z,7000
2017-08-09T14:45:02.847Z,28000
2017-08-09T14:50:03.187Z,9000
2017-08-09T14:55:02.659Z,12000
2017-08-09T15:00:03.046Z,26000
2017-08-09T15:05:02.375Z,25000
2017-08-09T15:10:02.727Z,25000
2017-08-09T15:15:03.028Z,27000
2017-08-09T15:20:02.477Z,25000
2017-08-09T15:25:02.989Z,23000
2017-08-09T15:30:02.400Z,8000
2017-08-09T15:35:02.805Z,23000
2017-08-09T15:40:03.319Z,22000
2017-08-09T15:45:02.682Z,20000
2017-08-09T15:50:03.151Z,19000
2017-08-09T15:55:02.603Z,19000
2017-08-09T16:00:02.906Z,18000
2017-08-09T16:05:02.356Z,17000
2017-08-09T16:10:02.739Z,17000
2017-08-09T16:15:03.166Z,18000
2017-08-09T16:20:02.666Z,16000
2017-08-09T16:25:03.137Z,16000
2017-08-09T16:30:02.512Z,15000
2017-08-09T16:35:02.806Z,15000
2017-08-09T16:40:03.169Z,14000
2017-08-09T16:45:02.617Z,14000
2017-08-09T16:50:02.861Z,13000
2017-08-09T16:55:03.161Z,13000
2017-08-09T17:00:02.585Z,13000
2017-08-09T17:05:02.996Z,12000
2017-08-09T17:10:02.330Z,11000
2017-08-09T17:15:02.657Z,11000
2017-08-09T17:20:03.012Z,10000
2017-08-09T17:25:02.436Z,10000
2017-08-09T17:30:02.877Z,10000
2017-08-09T17:35:03.249Z,9000
2017-08-09T17:40:02.742Z,8000
2017-08-09T17:45:03.182Z,7000
2017-08-09T17:50:02.594Z,7000
2017-08-09T17:55:03.063Z,6000
2017-08-09T18:00:02.501Z,6000
2017-08-09T18:05:02.726Z,5000
2017-08-09T18:10:02.970Z,5000
2017-08-09T18:15:02.483Z,4000
2017-08-09T18:20:02.971Z,4000
2017-08-09T18:25:02.364Z,2000
2017-08-09T18:30:02.817Z,857
2017-08-09T18:35:03.541Z,715
2017-08-09T18:40:02.925Z,584
2017-08-09T18:45:03.290Z,477
2017-08-09T18:50:02.654Z,406
2017-08-09T18:55:02.935Z,340
2017-08-09T19:00:02.365Z,311
2017-08-09T19:05:02.788Z,263
2017-08-09T19:10:03.287Z,73
2017-08-09T19:15:02.729Z,63
2017-08-09T19:20:03.221Z,43
2017-08-09T19:25:02.495Z,32
2017-08-09T19:30:02.853Z,19
2017-08-09T19:35:02.356Z,10
2017-08-09T19:40:02.804Z,4
2017-08-09T19:45:03.228Z,2
2017-08-09T19:50:02.664Z,1
2017-08-09T19:55:02.985Z,0
2017-08-09T20:00:03.348Z,0
2017-08-09T20:05:02.796Z,0
2017-08-09T20:10:03.254Z,0
2017-08-09T20:15:02.538Z,0
2017-08-09T20:20:02.988Z,0
2017-08-09T20:25:02.376Z,0
2017-08-09T20:30:02.858Z,0
2017-08-09T20:35:02.356Z,0
2017-08-09T20:40:02.879Z,0
2017-08-09T20:45:02.397Z,0
2017-08-09T20:50:02.722Z,0
2017-08-09T20:55:03.117Z,0
2017-08-09T21:00:02.433Z,0
2017-08-09T21:05:02.780Z,0
2017-08-09T21:10:03.165Z,0
2017-08-09T21:15:02.593Z,0
2017-08-09T21:20:03.055Z,0
2017-08-09T21:25:02.466Z,0
2017-08-09T21:30:03.042Z,0
2017-08-09T21:35:02.328Z,0
2017-08-09T21:40:02.854Z,0
2017-08-09T21:45:02.371Z,0
2017-08-09T21:50:02.837Z,0
2017-08-09T21:55:03.273Z,0
2017-08-09T22:00:02.516Z,0
2017-08-09T22:05:02.869Z,0
2017-08-09T22:10:03.240Z,0
2017-08-09T22:15:02.647Z,0
2017-08-09T22:20:03.177Z,0
2017-08-09T22:25:02.446Z,0
2017-08-09T22:30:02.907Z,0
2017-08-09T22:35:03.246Z,0
2017-08-09T22:40:02.598Z,0
2017-08-09T22:45:03.016Z,0
2017-08-09T22:50:02.330Z,0
2017-08-09T22:55:02.682Z,0
2017-08-09T23:00:03.241Z,0
2017-08-09T23:05:02.955Z,0
2017-08-09T23:10:02.340Z,0
2017-08-09T23:15:02.583Z,0
2017-08-09T23:20:03.073Z,0
2017-08-09T23:25:02.383Z,0
2017-08-09T23:30:02.818Z,0
2017-08-09T23:35:03.136Z,0
2017-08-09T23:40:02.613Z,0
2017-08-09T23:45:02.959Z,0
2017-08-09T23:50:03.258Z,0
2017-08-09T23:55:02.697Z,0
